createdAt,value
2017-12-23T00:01:59.262Z,87.05
2017-12-23T00:04:26.789Z,87.22
2017-12-23T00:06:54.313Z,87.05
2017-12-23T00:09:21.838Z,87.14
2017-12-23T00:11:49.358Z,87.18
2017-12-23T00:14:16.879Z,86.98
2017-12-23T00:16:45.412Z,86.98
2017-12-23T00:19:12.925Z,87.04
2017-12-23T00:21:40.447Z,87.31
2017-12-23T00:24:07.967Z,87.10
2017-12-23T00:26:35.493Z,87.03
2017-12-23T00:29:03.005Z,87.21
2017-12-23T00:31:30.523Z,87.07
2017-12-23T00:33:58.054Z,87.11
2017-12-23T00:36:25.595Z,87.09
2017-12-23T00:38:53.147Z,87.13
2017-12-23T00:41:20.681Z,86.97
2017-12-23T00:43:48.195Z,87.03
2017-12-23T00:46:15.725Z,86.95
2017-12-23T00:48:43.245Z,87.07
2017-12-23T00:51:10.757Z,87.00
2017-12-23T00:53:38.283Z,87.02
2017-12-23T00:56:05.816Z,87.25
2017-12-23T00:58:33.326Z,87.18
2017-12-23T01:01:00.857Z,86.98
2017-12-23T01:03:28.391Z,86.93
2017-12-23T01:05:55.906Z,86.87
2017-12-23T01:08:23.438Z,87.02
2017-12-23T01:10:50.959Z,86.75
2017-12-23T01:13:18.486Z,86.66
2017-12-23T01:15:46.024Z,86.74
2017-12-23T01:18:13.545Z,86.92
2017-12-23T01:20:41.071Z,86.79
2017-12-23T01:23:08.590Z,86.98
2017-12-23T01:25:36.100Z,86.89
2017-12-23T01:28:03.666Z,86.65
2017-12-23T01:30:31.167Z,86.61
2017-12-23T01:32:58.681Z,86.41
2017-12-23T01:35:26.199Z,86.52
2017-12-23T01:37:53.720Z,86.44
2017-12-23T01:40:21.246Z,86.31
2017-12-23T01:42:48.776Z,86.20
2017-12-23T01:45:16.296Z,86.05
2017-12-23T01:47:44.625Z,85.85
2017-12-23T01:50:12.145Z,86.12
2017-12-23T01:52:39.678Z,85.94
2017-12-23T01:55:07.197Z,85.78
2017-12-23T01:57:34.718Z,85.67
2017-12-23T02:00:02.246Z,85.51
2017-12-23T02:02:29.771Z,85.11
2017-12-23T02:04:57.297Z,85.20
2017-12-23T02:07:24.821Z,85.02
2017-12-23T02:09:52.338Z,84.99
2017-12-23T02:12:19.857Z,85.10
2017-12-23T02:14:47.373Z,85.38
2017-12-23T02:17:14.895Z,85.23
2017-12-23T02:19:42.413Z,85.13
2017-12-23T02:22:09.932Z,85.10
2017-12-23T02:24:37.459Z,85.11
2017-12-23T02:27:04.984Z,85.22
2017-12-23T02:29:32.520Z,85.20
2017-12-23T02:32:00.045Z,85.14
2017-12-23T02:34:27.584Z,85.20
2017-12-23T02:36:55.106Z,85.19
2017-12-23T02:39:22.638Z,84.72
2017-12-23T02:41:50.165Z,85.11
2017-12-23T02:44:17.714Z,85.15
2017-12-23T02:46:45.242Z,85.25
2017-12-23T02:49:12.769Z,84.99
2017-12-23T02:51:40.297Z,85.17
2017-12-23T02:54:07.822Z,85.27
2017-12-23T02:56:35.328Z,85.23
2017-12-23T02:59:02.858Z,85.49
2017-12-23T03:01:30.377Z,85.60
2017-12-23T03:03:57.894Z,85.69
2017-12-23T03:06:25.413Z,85.82
2017-12-23T03:08:52.929Z,85.91
2017-12-23T03:11:20.451Z,85.77
2017-12-23T03:13:47.974Z,85.86
2017-12-23T03:16:15.481Z,86.01
2017-12-23T03:18:43.000Z,85.93
2017-12-23T03:21:10.521Z,86.05
2017-12-23T03:23:38.044Z,85.94
2017-12-23T03:26:05.577Z,86.12
2017-12-23T03:28:33.093Z,86.12
2017-12-23T03:31:00.622Z,86.17
2017-12-23T03:33:28.162Z,85.95
2017-12-23T03:35:55.687Z,85.90
2017-12-23T03:38:23.200Z,85.87
2017-12-23T03:40:50.729Z,85.95
2017-12-23T03:43:18.249Z,86.03
2017-12-23T03:45:45.777Z,85.97
2017-12-23T03:48:13.296Z,86.00
2017-12-23T03:50:40.836Z,86.18
2017-12-23T03:53:08.367Z,85.91
2017-12-23T03:55:35.924Z,85.80
2017-12-23T03:58:03.445Z,85.87
2017-12-23T04:00:30.956Z,85.71
2017-12-23T04:02:58.473Z,86.03
2017-12-23T04:05:25.987Z,85.93
2017-12-23T04:07:53.518Z,85.87
2017-12-23T04:10:21.044Z,86.12
2017-12-23T04:12:50.981Z,86.00
2017-12-23T04:15:18.493Z,85.95
2017-12-23T04:17:45.995Z,85.92
2017-12-23T04:20:13.512Z,86.22
2017-12-23T04:22:41.026Z,86.27
2017-12-23T04:25:08.541Z,86.16
2017-12-23T04:27:36.071Z,85.85
2017-12-23T04:30:03.596Z,85.99
2017-12-23T04:32:31.120Z,86.42
2017-12-23T04:34:58.651Z,86.06
2017-12-23T04:37:26.181Z,86.17
2017-12-23T04:39:53.701Z,86.17
2017-12-23T04:42:21.222Z,86.20
2017-12-23T04:44:48.741Z,86.03
2017-12-23T04:47:16.286Z,86.13
2017-12-23T04:49:43.809Z,86.11
2017-12-23T04:52:11.316Z,85.97
2017-12-23T04:54:38.837Z,86.08
2017-12-23T04:57:06.357Z,85.87
2017-12-23T04:59:33.878Z,85.92
2017-12-23T05:02:01.402Z,85.97
2017-12-23T05:04:28.909Z,85.89
2017-12-23T05:06:56.437Z,85.97
2017-12-23T05:09:23.945Z,85.95
2017-12-23T05:11:51.473Z,85.81
2017-12-23T05:14:18.995Z,85.74
2017-12-23T05:16:46.530Z,85.87
2017-12-23T05:19:14.050Z,86.13
2017-12-23T05:21:41.598Z,85.92
2017-12-23T05:24:09.122Z,85.86
2017-12-23T05:26:36.641Z,85.67
2017-12-23T05:29:04.161Z,85.62
2017-12-23T05:31:31.672Z,85.67
2017-12-23T05:33:59.197Z,86.04
2017-12-23T05:36:26.705Z,86.04
2017-12-23T05:38:54.229Z,86.08
2017-12-23T05:41:21.752Z,86.22
2017-12-23T05:43:49.266Z,86.32
2017-12-23T05:46:16.788Z,86.55
2017-12-23T05:48:44.315Z,86.83
2017-12-23T05:51:11.838Z,86.61
2017-12-23T05:53:39.370Z,86.84
2017-12-23T05:56:06.899Z,86.92
2017-12-23T05:58:34.423Z,87.05
2017-12-23T06:01:01.942Z,86.95
2017-12-23T06:03:29.475Z,87.00
2017-12-23T06:05:57.006Z,87.40
2017-12-23T06:08:24.524Z,87.16
2017-12-23T06:10:52.042Z,87.30
2017-12-23T06:13:19.570Z,87.18
2017-12-23T06:15:47.098Z,87.63
2017-12-23T06:18:14.605Z,87.69
2017-12-23T06:20:42.120Z,87.66
2017-12-23T06:23:09.644Z,87.68
2017-12-23T06:25:37.166Z,87.86
2017-12-23T06:28:04.689Z,87.96
2017-12-23T06:30:32.209Z,88.15
2017-12-23T06:32:59.743Z,88.53
2017-12-23T06:35:27.268Z,88.57
2017-12-23T06:37:54.797Z,88.61
2017-12-23T06:40:22.331Z,88.79
2017-12-23T06:42:49.851Z,88.87
2017-12-23T06:45:17.376Z,89.01
2017-12-23T06:47:44.910Z,89.15
2017-12-23T06:50:12.421Z,89.33
2017-12-23T06:52:39.953Z,89.51
2017-12-23T06:55:07.468Z,89.39
2017-12-23T06:57:34.999Z,89.51
2017-12-23T07:00:02.531Z,89.29
2017-12-23T07:02:30.061Z,89.58
2017-12-23T07:04:57.583Z,89.45
2017-12-23T07:07:25.115Z,89.71
2017-12-23T07:09:52.637Z,89.68
2017-12-23T07:12:20.158Z,89.72
2017-12-23T07:14:47.690Z,89.80
2017-12-23T07:17:15.213Z,90.14
2017-12-23T07:19:42.740Z,89.61
2017-12-23T07:22:10.274Z,89.63
2017-12-23T07:24:37.795Z,89.59
2017-12-23T07:27:05.314Z,89.65
2017-12-23T07:29:32.860Z,89.54
2017-12-23T07:32:00.409Z,89.55
2017-12-23T07:34:27.929Z,89.46
2017-12-23T07:36:55.449Z,89.65
2017-12-23T07:39:23.015Z,89.46
2017-12-23T07:41:50.550Z,89.49
2017-12-23T07:44:18.072Z,89.53
2017-12-23T07:46:45.590Z,89.21
2017-12-23T07:49:13.120Z,89.36
2017-12-23T07:51:40.641Z,89.21
2017-12-23T07:54:08.172Z,89.24
2017-12-23T07:56:35.697Z,89.27
2017-12-23T07:59:03.213Z,89.39
2017-12-23T08:01:30.740Z,89.15
2017-12-23T08:03:58.270Z,89.06
2017-12-23T08:06:25.806Z,89.14
2017-12-23T08:08:53.324Z,88.99
2017-12-23T08:11:20.848Z,88.95
2017-12-23T08:13:48.407Z,89.02
2017-12-23T08:16:15.928Z,88.88
2017-12-23T08:18:43.463Z,88.90
2017-12-23T08:21:10.996Z,88.87
2017-12-23T08:23:38.512Z,88.92
2017-12-23T08:26:06.035Z,89.77
2017-12-23T08:28:33.571Z,89.72
2017-12-23T08:31:01.096Z,89.66
2017-12-23T08:33:28.618Z,88.85
2017-12-23T08:35:56.151Z,90.15
2017-12-23T08:38:23.674Z,88.29
2017-12-23T08:40:51.204Z,89.40
2017-12-23T08:43:18.720Z,87.93
2017-12-23T08:45:46.250Z,87.95
2017-12-23T08:48:13.769Z,87.97
2017-12-23T08:50:41.308Z,88.17
2017-12-23T08:53:08.830Z,88.02
2017-12-23T08:55:36.351Z,88.06
2017-12-23T08:58:03.871Z,88.23
2017-12-23T09:00:31.387Z,88.03
2017-12-23T09:02:58.905Z,88.20
2017-12-23T09:05:26.434Z,88.49
2017-12-23T09:07:53.950Z,88.42
2017-12-23T09:10:21.531Z,88.95
2017-12-23T09:12:49.024Z,89.00
2017-12-23T09:15:16.554Z,89.21
2017-12-23T09:17:44.065Z,89.27
2017-12-23T09:20:11.582Z,88.99
2017-12-23T09:22:39.092Z,89.26
2017-12-23T09:25:06.601Z,89.20
2017-12-23T09:27:34.117Z,89.02
2017-12-23T09:30:01.649Z,89.23
2017-12-23T09:32:29.181Z,89.33
2017-12-23T09:34:56.697Z,89.31
2017-12-23T09:37:24.223Z,89.33
2017-12-23T09:39:51.761Z,89.38
2017-12-23T09:42:19.274Z,89.37
2017-12-23T09:44:46.911Z,89.71
2017-12-23T09:47:14.425Z,89.57
2017-12-23T09:49:41.953Z,89.68
2017-12-23T09:52:09.482Z,89.69
2017-12-23T09:54:37.005Z,89.47
2017-12-23T09:57:04.529Z,89.79
2017-12-23T09:59:32.050Z,89.95
2017-12-23T10:01:59.592Z,89.70
2017-12-23T10:04:27.122Z,89.48
2017-12-23T10:06:54.647Z,89.81
2017-12-23T10:09:22.167Z,89.84
2017-12-23T10:11:49.684Z,89.65
2017-12-23T10:14:17.203Z,89.64
2017-12-23T10:16:44.738Z,90.04
2017-12-23T10:19:12.261Z,89.76
2017-12-23T10:21:39.781Z,89.72
2017-12-23T10:24:07.301Z,89.78
2017-12-23T10:26:35.277Z,89.69
2017-12-23T10:29:02.814Z,89.54
2017-12-23T10:31:30.344Z,89.54
2017-12-23T10:33:57.863Z,89.29
2017-12-23T10:36:25.373Z,89.12
2017-12-23T10:38:52.910Z,89.27
2017-12-23T10:41:20.421Z,88.96
2017-12-23T10:43:47.943Z,88.68
2017-12-23T10:46:15.461Z,88.61
2017-12-23T10:48:42.989Z,88.52
2017-12-23T10:51:10.517Z,88.62
2017-12-23T10:53:38.025Z,88.74
2017-12-23T10:56:05.544Z,88.44
2017-12-23T10:58:33.061Z,88.48
2017-12-23T11:01:00.574Z,88.42
2017-12-23T11:03:28.094Z,88.17
2017-12-23T11:05:55.606Z,87.86
2017-12-23T11:08:23.113Z,87.74
2017-12-23T11:10:50.625Z,87.66
2017-12-23T11:13:18.129Z,87.61
2017-12-23T11:15:45.642Z,87.54
2017-12-23T11:18:13.160Z,87.53
2017-12-23T11:20:40.663Z,87.44
2017-12-23T11:23:08.280Z,87.84
2017-12-23T11:25:35.785Z,87.68
2017-12-23T11:28:03.292Z,87.99
2017-12-23T11:30:30.816Z,87.84
2017-12-23T11:32:58.322Z,88.00
2017-12-23T11:35:25.824Z,87.74
2017-12-23T11:37:53.338Z,87.75
2017-12-23T11:40:20.850Z,87.55
2017-12-23T11:42:48.366Z,87.37
2017-12-23T11:45:15.891Z,87.59
2017-12-23T11:47:43.410Z,87.80
2017-12-23T11:50:11.038Z,87.96
2017-12-23T11:52:38.568Z,87.98
2017-12-23T11:55:06.077Z,88.00
2017-12-23T11:57:33.587Z,88.32
2017-12-23T12:00:01.127Z,88.41
2017-12-23T12:02:28.643Z,88.70
2017-12-23T12:04:56.162Z,89.36
2017-12-23T12:07:23.754Z,89.11
2017-12-23T12:09:51.415Z,89.35
2017-12-23T12:12:18.947Z,89.50
2017-12-23T12:14:46.464Z,89.39
2017-12-23T12:17:13.992Z,89.57
2017-12-23T12:19:41.500Z,89.70
2017-12-23T12:22:09.005Z,90.10
2017-12-23T12:24:36.518Z,90.41
2017-12-23T12:27:04.039Z,90.43
2017-12-23T12:29:31.691Z,90.47
2017-12-23T12:31:59.220Z,90.49
2017-12-23T12:34:26.755Z,90.46
2017-12-23T12:36:54.267Z,90.83
2017-12-23T12:39:21.827Z,90.76
2017-12-23T12:41:49.338Z,90.75
2017-12-23T12:44:16.896Z,90.70
2017-12-23T12:46:44.496Z,90.70
2017-12-23T12:49:12.067Z,90.27
2017-12-23T12:51:39.579Z,90.61
2017-12-23T12:54:07.090Z,90.74
2017-12-23T12:56:34.612Z,90.76
2017-12-23T12:59:02.148Z,90.65
2017-12-23T13:01:29.656Z,90.63
2017-12-23T13:03:57.187Z,90.54
2017-12-23T13:06:24.701Z,90.62
2017-12-23T13:08:52.340Z,90.70
2017-12-23T13:11:19.848Z,90.56
2017-12-23T13:13:47.366Z,90.52
2017-12-23T13:16:14.884Z,90.43
2017-12-23T13:18:42.396Z,90.17
2017-12-23T13:21:09.931Z,90.07
2017-12-23T13:23:37.484Z,89.98
2017-12-23T13:26:05.020Z,89.88
2017-12-23T13:28:32.532Z,89.56
2017-12-23T13:31:00.053Z,89.47
2017-12-23T13:33:27.566Z,89.50
2017-12-23T13:35:55.078Z,89.24
2017-12-23T13:38:22.647Z,89.20
2017-12-23T13:40:50.161Z,89.25
2017-12-23T13:43:17.669Z,89.05
2017-12-23T13:45:45.220Z,89.11
2017-12-23T13:48:12.724Z,89.01
2017-12-23T13:50:40.238Z,88.82
2017-12-23T13:53:07.737Z,88.95
2017-12-23T13:55:35.245Z,88.88
2017-12-23T13:58:02.810Z,88.79
2017-12-23T14:00:30.316Z,88.70
2017-12-23T14:02:57.925Z,88.61
2017-12-23T14:05:25.435Z,88.65
2017-12-23T14:07:52.944Z,88.59
2017-12-23T14:10:20.522Z,88.63
2017-12-23T14:12:48.037Z,88.41
2017-12-23T14:15:15.629Z,88.31
2017-12-23T14:17:43.149Z,88.22
2017-12-23T14:20:10.660Z,88.16
2017-12-23T14:22:38.181Z,88.31
2017-12-23T14:25:05.765Z,88.18
2017-12-23T14:27:33.345Z,88.24
2017-12-23T14:30:00.858Z,88.30
2017-12-23T14:32:28.389Z,88.28
2017-12-23T14:34:56.001Z,88.61
2017-12-23T14:37:23.506Z,88.51
2017-12-23T14:39:51.017Z,88.48
2017-12-23T14:42:18.584Z,88.44
2017-12-23T14:44:46.112Z,88.14
2017-12-23T14:47:13.711Z,88.04
2017-12-23T14:49:41.265Z,88.05
2017-12-23T14:52:08.777Z,87.99
2017-12-23T14:54:36.330Z,87.94
2017-12-23T14:57:03.928Z,87.98
2017-12-23T14:59:32.158Z,87.70
2017-12-23T15:01:59.792Z,87.79
2017-12-23T15:04:27.308Z,87.72
2017-12-23T15:06:54.836Z,87.81
2017-12-23T15:09:22.349Z,87.83
2017-12-23T15:11:49.917Z,87.88
2017-12-23T15:14:17.492Z,87.91
2017-12-23T15:16:45.171Z,87.91
2017-12-23T15:19:12.684Z,88.00
2017-12-23T15:21:40.232Z,87.84
2017-12-23T15:24:07.760Z,87.86
2017-12-23T15:26:35.279Z,87.92
2017-12-23T15:29:02.846Z,87.91
2017-12-23T15:31:30.360Z,88.11
2017-12-23T15:33:57.887Z,88.16
2017-12-23T15:36:25.441Z,88.05
2017-12-23T15:38:52.958Z,88.15
2017-12-23T15:41:20.581Z,88.25
2017-12-23T15:43:48.110Z,88.33
2017-12-23T15:46:15.634Z,88.29
2017-12-23T15:48:43.150Z,88.30
2017-12-23T15:51:10.892Z,88.37
2017-12-23T15:53:38.763Z,88.33
2017-12-23T15:56:06.610Z,88.13
2017-12-23T15:58:34.344Z,88.12
2017-12-23T16:01:02.159Z,88.24
2017-12-23T16:03:30.024Z,88.08
2017-12-23T16:05:57.668Z,88.07
2017-12-23T16:08:25.560Z,87.94
2017-12-23T16:10:53.524Z,88.12
2017-12-23T16:13:21.365Z,88.08
2017-12-23T16:15:49.130Z,87.93
2017-12-23T16:18:16.665Z,88.16
2017-12-23T16:20:44.188Z,87.94
2017-12-23T16:23:11.714Z,88.07
2017-12-23T16:25:39.312Z,87.89
2017-12-23T16:28:06.834Z,87.83
2017-12-23T16:30:34.413Z,87.71
2017-12-23T16:33:01.941Z,87.67
2017-12-23T16:35:29.617Z,87.70
2017-12-23T16:37:57.120Z,87.85
2017-12-23T16:40:24.652Z,87.59
2017-12-23T16:42:52.180Z,87.54
2017-12-23T16:45:20.600Z,87.43
2017-12-23T16:47:48.138Z,87.50
2017-12-23T16:50:16.615Z,87.46
2017-12-23T16:52:44.136Z,87.46
2017-12-23T16:55:12.481Z,87.45
2017-12-23T16:57:41.395Z,87.58
2017-12-23T17:00:08.990Z,87.73
2017-12-23T17:02:36.533Z,87.82
2017-12-23T17:05:04.055Z,87.97
2017-12-23T17:07:31.680Z,88.04
2017-12-23T17:09:59.267Z,88.00
2017-12-23T17:12:27.766Z,87.97
2017-12-23T17:14:55.311Z,87.78
2017-12-23T17:17:22.853Z,87.69
2017-12-23T17:19:50.372Z,87.71
2017-12-23T17:22:17.914Z,87.91
2017-12-23T17:24:45.521Z,88.13
2017-12-23T17:27:13.178Z,88.24
2017-12-23T17:29:52.611Z,87.99
2017-12-23T17:32:20.128Z,87.98
2017-12-23T17:34:47.677Z,88.07
2017-12-23T17:37:15.199Z,88.14
2017-12-23T17:39:43.373Z,88.11
2017-12-23T17:42:11.065Z,88.06
2017-12-23T17:44:38.713Z,88.36
2017-12-23T17:47:06.223Z,88.64
2017-12-23T17:49:33.742Z,88.71
2017-12-23T17:52:01.263Z,88.64
2017-12-23T17:54:28.783Z,88.91
2017-12-23T17:56:56.328Z,89.02
2017-12-23T17:59:24.069Z,89.28
2017-12-23T18:01:51.820Z,89.66
2017-12-23T18:04:19.397Z,89.81
2017-12-23T18:06:46.956Z,89.49
2017-12-23T18:09:14.473Z,89.36
2017-12-23T18:11:42.037Z,89.40
2017-12-23T18:14:09.548Z,89.34
2017-12-23T18:16:37.084Z,89.30
2017-12-23T18:19:04.614Z,89.36
2017-12-23T18:21:32.129Z,89.25
2017-12-23T18:23:59.655Z,89.29
2017-12-23T18:26:27.754Z,89.31
2017-12-23T18:28:55.268Z,89.48
2017-12-23T18:31:22.785Z,89.79
2017-12-23T18:33:50.305Z,90.13
2017-12-23T18:36:17.822Z,90.07
2017-12-23T18:38:45.336Z,90.47
2017-12-23T18:41:12.858Z,90.72
2017-12-23T18:43:40.376Z,90.66
2017-12-23T18:46:07.891Z,90.57
2017-12-23T18:48:35.411Z,90.60
2017-12-23T18:51:02.932Z,90.38
2017-12-23T18:53:30.470Z,90.46
2017-12-23T18:55:57.992Z,90.37
2017-12-23T18:58:25.506Z,90.42
2017-12-23T19:00:53.022Z,90.27
2017-12-23T19:03:21.746Z,90.36
2017-12-23T19:05:49.256Z,90.16
2017-12-23T19:08:16.784Z,90.02
2017-12-23T19:10:44.317Z,89.93
2017-12-23T19:13:11.880Z,89.77
2017-12-23T19:15:39.573Z,89.65
2017-12-23T19:18:07.242Z,89.59
2017-12-23T19:20:34.836Z,89.48
2017-12-23T19:23:02.427Z,89.41
2017-12-23T19:25:29.974Z,89.32
2017-12-23T19:27:57.493Z,89.16
2017-12-23T19:30:25.000Z,89.25
2017-12-23T19:32:52.514Z,89.15
2017-12-23T19:35:20.045Z,88.92
2017-12-23T19:37:47.596Z,88.81
2017-12-23T19:40:15.144Z,88.75
2017-12-23T19:42:42.796Z,88.51
2017-12-23T19:45:10.368Z,88.44
2017-12-23T19:47:37.921Z,88.37
2017-12-23T19:50:05.437Z,88.19
2017-12-23T19:52:32.945Z,88.01
2017-12-23T19:55:00.489Z,87.88
2017-12-23T19:57:28.049Z,87.97
2017-12-23T19:59:55.821Z,88.04
2017-12-23T20:02:23.573Z,87.58
2017-12-23T20:04:51.146Z,87.34
2017-12-23T20:07:18.703Z,87.34
2017-12-23T20:09:46.358Z,87.30
2017-12-23T20:12:13.909Z,87.23
2017-12-23T20:14:41.420Z,86.96
2017-12-23T20:17:08.941Z,86.91
2017-12-23T20:19:36.492Z,86.97
2017-12-23T20:22:04.077Z,86.87
2017-12-23T20:24:31.620Z,86.69
2017-12-23T20:26:59.142Z,86.55
2017-12-23T20:29:26.749Z,86.47
2017-12-23T20:31:54.469Z,86.34
2017-12-23T20:34:22.039Z,86.48
2017-12-23T20:36:49.558Z,86.25
2017-12-23T20:39:17.167Z,86.20
2017-12-23T20:41:44.690Z,86.32
2017-12-23T20:44:12.214Z,86.09
2017-12-23T20:46:39.731Z,85.95
2017-12-23T20:49:07.258Z,85.72
2017-12-23T20:51:34.803Z,85.94
2017-12-23T20:54:02.425Z,85.91
2017-12-23T20:56:29.963Z,85.86
2017-12-23T20:58:57.526Z,85.76
2017-12-23T21:01:25.082Z,85.49
2017-12-23T21:03:52.606Z,85.78
2017-12-23T21:06:20.128Z,85.73
2017-12-23T21:08:47.661Z,85.88
2017-12-23T21:11:15.195Z,85.73
2017-12-23T21:13:42.809Z,85.75
2017-12-23T21:16:10.537Z,85.78
2017-12-23T21:18:38.159Z,85.90
2017-12-23T21:21:05.720Z,85.75
2017-12-23T21:23:33.295Z,85.63
2017-12-23T21:26:00.836Z,85.90
2017-12-23T21:28:28.367Z,85.81
2017-12-23T21:30:55.893Z,85.80
2017-12-23T21:33:23.512Z,85.61
2017-12-23T21:35:51.048Z,85.71
2017-12-23T21:38:19.386Z,85.51
2017-12-23T21:40:46.908Z,85.54
2017-12-23T21:43:14.542Z,85.76
2017-12-23T21:45:42.085Z,85.42
2017-12-23T21:48:09.603Z,85.33
2017-12-23T21:50:37.200Z,85.48
2017-12-23T21:53:04.843Z,85.46
2017-12-23T21:55:32.398Z,85.49
2017-12-23T21:57:59.917Z,85.50
2017-12-23T22:00:27.433Z,85.34
2017-12-23T22:02:55.013Z,85.54
2017-12-23T22:05:22.556Z,85.64
2017-12-23T22:07:50.070Z,85.59
2017-12-23T22:10:17.586Z,85.80
2017-12-23T22:12:45.140Z,85.69
2017-12-23T22:15:12.674Z,85.76
2017-12-23T22:17:40.200Z,85.54
2017-12-23T22:20:07.713Z,85.85
2017-12-23T22:22:35.321Z,85.86
2017-12-23T22:25:02.845Z,85.93
2017-12-23T22:27:30.370Z,85.83
2017-12-23T22:29:57.936Z,85.75
2017-12-23T22:32:25.425Z,85.80
2017-12-23T22:34:52.982Z,85.86
2017-12-23T22:37:20.602Z,85.62
2017-12-23T22:39:48.115Z,85.62
2017-12-23T22:42:27.705Z,85.63
2017-12-23T22:44:55.216Z,85.60
2017-12-23T22:47:22.776Z,85.58
2017-12-23T22:49:50.312Z,85.71
2017-12-23T22:52:17.833Z,85.58
2017-12-23T22:54:45.345Z,85.52
2017-12-23T22:57:12.886Z,85.67
2017-12-23T22:59:40.405Z,85.75
2017-12-23T23:02:08.009Z,85.79
2017-12-23T23:04:35.713Z,85.79
2017-12-23T23:07:03.288Z,85.58
2017-12-23T23:09:30.820Z,85.31
2017-12-23T23:11:58.332Z,85.37
2017-12-23T23:14:25.857Z,85.23
2017-12-23T23:16:53.364Z,85.40
2017-12-23T23:19:20.881Z,85.53
2017-12-23T23:21:48.392Z,85.56
2017-12-23T23:24:15.957Z,85.51
2017-12-23T23:26:43.494Z,85.48
2017-12-23T23:29:11.046Z,85.39
2017-12-23T23:31:38.586Z,85.37
2017-12-23T23:34:06.096Z,85.15
2017-12-23T23:36:33.610Z,85.08
2017-12-23T23:39:01.127Z,85.25
2017-12-23T23:41:28.650Z,84.97
2017-12-23T23:43:56.165Z,85.03
2017-12-23T23:46:23.690Z,85.11
2017-12-23T23:48:51.269Z,84.97
2017-12-23T23:51:18.793Z,85.01
2017-12-23T23:53:46.313Z,84.96
2017-12-23T23:56:13.830Z,84.87
2017-12-23T23:58:41.340Z,84.92
